sensor_id;sensor_type;location;lat;lon;timestamp;temperature;humidity
41058;DHT22;66768;48.884;2.258;2023-08-06T00:00:55;16.20;99.90
41058;DHT22;66768;48.884;2.258;2023-08-06T00:03:22;16.20;99.90
41058;DHT22;66768;48.884;2.258;2023-08-06T00:05:49;16.20;99.90
41058;DHT22;66768;48.884;2.258;2023-08-06T00:08:16;16.20;99.90
41058;DHT22;66768;48.884;2.258;2023-08-06T00:10:44;16.20;99.90
41058;DHT22;66768;48.884;2.258;2023-08-06T00:13:11;16.30;99.90
41058;DHT22;66768;48.884;2.258;2023-08-06T00:15:37;16.30;99.90
41058;DHT22;66768;48.884;2.258;2023-08-06T00:18:04;16.20;99.90
41058;DHT22;66768;48.884;2.258;2023-08-06T00:20:31;16.20;99.90
41058;DHT22;66768;48.884;2.258;2023-08-06T00:22:58;16.20;99.90
41058;DHT22;66768;48.884;2.258;2023-08-06T00:25:25;16.20;99.90
41058;DHT22;66768;48.884;2.258;2023-08-06T00:27:53;16.30;99.90
41058;DHT22;66768;48.884;2.258;2023-08-06T00:30:21;16.20;99.90
41058;DHT22;66768;48.884;2.258;2023-08-06T00:32:48;16.20;99.90
41058;DHT22;66768;48.884;2.258;2023-08-06T00:35:15;16.20;99.90
41058;DHT22;66768;48.884;2.258;2023-08-06T00:37:42;16.20;99.90
41058;DHT22;66768;48.884;2.258;2023-08-06T00:40:09;16.30;99.90
41058;DHT22;66768;48.884;2.258;2023-08-06T00:42:36;16.20;99.90
41058;DHT22;66768;48.884;2.258;2023-08-06T00:45:05;16.20;99.90
41058;DHT22;66768;48.884;2.258;2023-08-06T00:47:32;16.20;99.90
41058;DHT22;66768;48.884;2.258;2023-08-06T00:49:59;16.10;99.90
41058;DHT22;66768;48.884;2.258;2023-08-06T00:52:26;16.20;99.90
41058;DHT22;66768;48.884;2.258;2023-08-06T00:54:53;16.10;99.90
41058;DHT22;66768;48.884;2.258;2023-08-06T00:57:21;16.10;99.90
41058;DHT22;66768;48.884;2.258;2023-08-06T00:59:49;16.10;99.90
41058;DHT22;66768;48.884;2.258;2023-08-06T01:02:18;16.00;99.90
41058;DHT22;66768;48.884;2.258;2023-08-06T01:04:44;16.00;99.90
41058;DHT22;66768;48.884;2.258;2023-08-06T01:07:19;16.00;99.90
41058;DHT22;66768;48.884;2.258;2023-08-06T01:09:54;16.00;99.90
41058;DHT22;66768;48.884;2.258;2023-08-06T01:12:32;16.00;99.90
41058;DHT22;66768;48.884;2.258;2023-08-06T01:15:07;16.00;99.90
41058;DHT22;66768;48.884;2.258;2023-08-06T01:17:36;15.90;99.90
41058;DHT22;66768;48.884;2.258;2023-08-06T01:20:04;16.00;99.90
41058;DHT22;66768;48.884;2.258;2023-08-06T01:22:32;16.00;99.90
41058;DHT22;66768;48.884;2.258;2023-08-06T01:24:59;15.90;99.90
41058;DHT22;66768;48.884;2.258;2023-08-06T01:27:32;16.00;99.90
41058;DHT22;66768;48.884;2.258;2023-08-06T01:30:04;16.00;99.90
41058;DHT22;66768;48.884;2.258;2023-08-06T01:32:35;15.90;99.90
41058;DHT22;66768;48.884;2.258;2023-08-06T01:35:04;15.90;99.90
41058;DHT22;66768;48.884;2.258;2023-08-06T01:37:33;15.90;99.90
41058;DHT22;66768;48.884;2.258;2023-08-06T01:40:00;15.90;99.90
41058;DHT22;66768;48.884;2.258;2023-08-06T01:42:27;15.90;99.90
41058;DHT22;66768;48.884;2.258;2023-08-06T01:44:54;16.00;99.90
41058;DHT22;66768;48.884;2.258;2023-08-06T01:47:21;16.00;99.90
41058;DHT22;66768;48.884;2.258;2023-08-06T01:49:47;15.90;99.90
41058;DHT22;66768;48.884;2.258;2023-08-06T01:52:14;16.00;99.90
41058;DHT22;66768;48.884;2.258;2023-08-06T01:54:43;16.00;99.90
41058;DHT22;66768;48.884;2.258;2023-08-06T01:57:09;16.00;99.90
41058;DHT22;66768;48.884;2.258;2023-08-06T01:59:36;16.00;99.90
41058;DHT22;66768;48.884;2.258;2023-08-06T02:02:04;16.00;99.90
41058;DHT22;66768;48.884;2.258;2023-08-06T02:04:31;15.90;99.90
41058;DHT22;66768;48.884;2.258;2023-08-06T02:06:57;15.90;99.90
41058;DHT22;66768;48.884;2.258;2023-08-06T02:09:24;15.90;99.90
41058;DHT22;66768;48.884;2.258;2023-08-06T02:11:53;15.90;99.90
41058;DHT22;66768;48.884;2.258;2023-08-06T02:14:19;16.00;99.90
41058;DHT22;66768;48.884;2.258;2023-08-06T02:16:46;16.00;99.90
41058;DHT22;66768;48.884;2.258;2023-08-06T02:19:14;16.00;99.90
41058;DHT22;66768;48.884;2.258;2023-08-06T02:21:41;16.00;99.90
41058;DHT22;66768;48.884;2.258;2023-08-06T02:24:07;15.90;99.90
41058;DHT22;66768;48.884;2.258;2023-08-06T02:26:34;16.00;99.90
41058;DHT22;66768;48.884;2.258;2023-08-06T02:29:02;16.00;99.90
41058;DHT22;66768;48.884;2.258;2023-08-06T02:31:29;15.90;99.90
41058;DHT22;66768;48.884;2.258;2023-08-06T02:33:56;15.90;99.90
41058;DHT22;66768;48.884;2.258;2023-08-06T02:36:24;15.90;99.90
41058;DHT22;66768;48.884;2.258;2023-08-06T02:38:54;15.90;99.90
41058;DHT22;66768;48.884;2.258;2023-08-06T02:41:21;15.90;99.90
41058;DHT22;66768;48.884;2.258;2023-08-06T02:43:48;15.90;99.90
41058;DHT22;66768;48.884;2.258;2023-08-06T02:46:16;16.00;99.90
41058;DHT22;66768;48.884;2.258;2023-08-06T02:48:43;16.00;99.90
41058;DHT22;66768;48.884;2.258;2023-08-06T02:51:10;16.00;99.90
41058;DHT22;66768;48.884;2.258;2023-08-06T02:53:37;16.00;99.90
41058;DHT22;66768;48.884;2.258;2023-08-06T02:56:04;15.90;99.90
41058;DHT22;66768;48.884;2.258;2023-08-06T02:58:31;15.90;99.90
41058;DHT22;66768;48.884;2.258;2023-08-06T03:01:02;15.90;99.90
41058;DHT22;66768;48.884;2.258;2023-08-06T03:03:31;15.90;99.90
41058;DHT22;66768;48.884;2.258;2023-08-06T03:05:58;15.90;99.90
41058;DHT22;66768;48.884;2.258;2023-08-06T03:08:25;15.90;99.90
41058;DHT22;66768;48.884;2.258;2023-08-06T03:10:51;15.90;99.90
41058;DHT22;66768;48.884;2.258;2023-08-06T03:13:19;15.90;99.90
41058;DHT22;66768;48.884;2.258;2023-08-06T03:15:52;15.90;99.90
41058;DHT22;66768;48.884;2.258;2023-08-06T03:18:19;15.90;99.90
41058;DHT22;66768;48.884;2.258;2023-08-06T03:20:48;15.90;99.90
41058;DHT22;66768;48.884;2.258;2023-08-06T03:23:14;15.90;99.90
41058;DHT22;66768;48.884;2.258;2023-08-06T03:25:41;15.90;99.90
41058;DHT22;66768;48.884;2.258;2023-08-06T03:28:09;15.90;99.90
41058;DHT22;66768;48.884;2.258;2023-08-06T03:30:36;15.90;99.90
41058;DHT22;66768;48.884;2.258;2023-08-06T03:33:03;15.90;99.90
41058;DHT22;66768;48.884;2.258;2023-08-06T03:35:30;15.80;99.90
41058;DHT22;66768;48.884;2.258;2023-08-06T03:37:58;15.80;99.90
41058;DHT22;66768;48.884;2.258;2023-08-06T03:40:25;15.80;99.90
41058;DHT22;66768;48.884;2.258;2023-08-06T03:42:52;15.70;99.90
41058;DHT22;66768;48.884;2.258;2023-08-06T03:45:19;15.70;99.90
41058;DHT22;66768;48.884;2.258;2023-08-06T03:47:46;15.70;99.90
41058;DHT22;66768;48.884;2.258;2023-08-06T03:50:13;15.70;99.90
41058;DHT22;66768;48.884;2.258;2023-08-06T03:52:40;15.70;99.90
41058;DHT22;66768;48.884;2.258;2023-08-06T03:55:08;15.70;99.90
41058;DHT22;66768;48.884;2.258;2023-08-06T03:57:35;15.60;99.90
41058;DHT22;66768;48.884;2.258;2023-08-06T04:00:02;15.70;99.90
41058;DHT22;66768;48.884;2.258;2023-08-06T04:02:30;15.70;99.90
41058;DHT22;66768;48.884;2.258;2023-08-06T04:04:56;15.70;99.90
41058;DHT22;66768;48.884;2.258;2023-08-06T04:07:24;15.70;99.90
41058;DHT22;66768;48.884;2.258;2023-08-06T04:09:53;15.80;99.90
41058;DHT22;66768;48.884;2.258;2023-08-06T04:12:22;15.80;99.90
41058;DHT22;66768;48.884;2.258;2023-08-06T04:14:49;15.80;99.90
41058;DHT22;66768;48.884;2.258;2023-08-06T04:17:16;15.80;99.90
41058;DHT22;66768;48.884;2.258;2023-08-06T04:19:46;15.80;99.90
41058;DHT22;66768;48.884;2.258;2023-08-06T04:22:13;15.80;99.90
41058;DHT22;66768;48.884;2.258;2023-08-06T04:24:40;15.80;99.90
41058;DHT22;66768;48.884;2.258;2023-08-06T04:27:07;15.80;99.90
41058;DHT22;66768;48.884;2.258;2023-08-06T04:29:35;15.70;99.90
41058;DHT22;66768;48.884;2.258;2023-08-06T04:32:05;15.80;99.90
41058;DHT22;66768;48.884;2.258;2023-08-06T04:34:32;15.70;99.90
41058;DHT22;66768;48.884;2.258;2023-08-06T04:36:59;15.80;99.90
41058;DHT22;66768;48.884;2.258;2023-08-06T04:39:26;15.70;99.90
41058;DHT22;66768;48.884;2.258;2023-08-06T04:41:54;15.70;99.90
41058;DHT22;66768;48.884;2.258;2023-08-06T04:44:21;15.70;99.90
41058;DHT22;66768;48.884;2.258;2023-08-06T04:46:50;15.60;99.90
41058;DHT22;66768;48.884;2.258;2023-08-06T04:49:17;15.70;99.90
41058;DHT22;66768;48.884;2.258;2023-08-06T04:51:44;15.70;99.90
41058;DHT22;66768;48.884;2.258;2023-08-06T04:54:10;15.70;99.90
41058;DHT22;66768;48.884;2.258;2023-08-06T04:56:37;15.70;99.90
41058;DHT22;66768;48.884;2.258;2023-08-06T04:59:04;15.70;99.90
41058;DHT22;66768;48.884;2.258;2023-08-06T05:01:31;15.60;99.90
41058;DHT22;66768;48.884;2.258;2023-08-06T05:03:59;15.70;99.90
41058;DHT22;66768;48.884;2.258;2023-08-06T05:06:26;15.70;99.90
41058;DHT22;66768;48.884;2.258;2023-08-06T05:08:53;15.70;99.90
41058;DHT22;66768;48.884;2.258;2023-08-06T05:11:20;15.80;99.90
41058;DHT22;66768;48.884;2.258;2023-08-06T05:13:47;15.80;99.90
41058;DHT22;66768;48.884;2.258;2023-08-06T05:16:14;15.80;99.90
41058;DHT22;66768;48.884;2.258;2023-08-06T05:18:40;15.80;99.90
41058;DHT22;66768;48.884;2.258;2023-08-06T05:21:09;15.80;99.90
41058;DHT22;66768;48.884;2.258;2023-08-06T05:23:36;15.70;99.90
41058;DHT22;66768;48.884;2.258;2023-08-06T05:26:03;15.70;99.90
41058;DHT22;66768;48.884;2.258;2023-08-06T05:28:29;15.70;99.90
41058;DHT22;66768;48.884;2.258;2023-08-06T05:30:56;15.70;99.90
41058;DHT22;66768;48.884;2.258;2023-08-06T05:33:24;15.60;99.90
41058;DHT22;66768;48.884;2.258;2023-08-06T05:35:51;15.70;99.90
41058;DHT22;66768;48.884;2.258;2023-08-06T05:38:19;15.60;99.90
41058;DHT22;66768;48.884;2.258;2023-08-06T05:40:46;15.60;99.90
41058;DHT22;66768;48.884;2.258;2023-08-06T05:43:13;15.60;99.90
41058;DHT22;66768;48.884;2.258;2023-08-06T05:45:43;15.70;99.90
41058;DHT22;66768;48.884;2.258;2023-08-06T05:48:10;15.70;99.90
41058;DHT22;66768;48.884;2.258;2023-08-06T05:50:37;15.70;99.90
41058;DHT22;66768;48.884;2.258;2023-08-06T05:53:04;15.70;99.90
41058;DHT22;66768;48.884;2.258;2023-08-06T05:55:32;15.70;99.90
41058;DHT22;66768;48.884;2.258;2023-08-06T05:57:59;15.60;99.90
41058;DHT22;66768;48.884;2.258;2023-08-06T06:00:26;15.70;99.90
41058;DHT22;66768;48.884;2.258;2023-08-06T06:02:53;15.70;99.90
41058;DHT22;66768;48.884;2.258;2023-08-06T06:05:20;15.70;99.90
41058;DHT22;66768;48.884;2.258;2023-08-06T06:07:47;15.80;99.90
41058;DHT22;66768;48.884;2.258;2023-08-06T06:10:14;15.80;99.90
41058;DHT22;66768;48.884;2.258;2023-08-06T06:12:42;15.80;99.90
41058;DHT22;66768;48.884;2.258;2023-08-06T06:15:09;15.90;99.90
41058;DHT22;66768;48.884;2.258;2023-08-06T06:17:36;15.90;99.90
41058;DHT22;66768;48.884;2.258;2023-08-06T06:20:04;15.90;99.90
41058;DHT22;66768;48.884;2.258;2023-08-06T06:22:31;15.90;99.90
41058;DHT22;66768;48.884;2.258;2023-08-06T06:24:58;16.00;99.90
41058;DHT22;66768;48.884;2.258;2023-08-06T06:27:25;16.10;99.90
41058;DHT22;66768;48.884;2.258;2023-08-06T06:29:53;16.10;99.90
41058;DHT22;66768;48.884;2.258;2023-08-06T06:32:21;16.10;99.90
41058;DHT22;66768;48.884;2.258;2023-08-06T06:34:48;16.10;99.90
41058;DHT22;66768;48.884;2.258;2023-08-06T06:37:15;16.20;99.90
41058;DHT22;66768;48.884;2.258;2023-08-06T06:39:42;16.20;99.90
41058;DHT22;66768;48.884;2.258;2023-08-06T06:42:09;16.20;99.90
41058;DHT22;66768;48.884;2.258;2023-08-06T06:44:36;16.20;99.90
41058;DHT22;66768;48.884;2.258;2023-08-06T06:47:05;16.30;99.90
41058;DHT22;66768;48.884;2.258;2023-08-06T06:49:31;16.30;99.90
41058;DHT22;66768;48.884;2.258;2023-08-06T06:51:58;16.40;99.90
41058;DHT22;66768;48.884;2.258;2023-08-06T06:54:25;16.50;99.90
41058;DHT22;66768;48.884;2.258;2023-08-06T06:56:52;16.60;99.90
41058;DHT22;66768;48.884;2.258;2023-08-06T06:59:19;16.70;99.90
41058;DHT22;66768;48.884;2.258;2023-08-06T07:01:45;16.80;99.90
41058;DHT22;66768;48.884;2.258;2023-08-06T07:04:14;16.90;99.90
41058;DHT22;66768;48.884;2.258;2023-08-06T07:06:40;16.90;99.90
41058;DHT22;66768;48.884;2.258;2023-08-06T07:09:07;16.90;99.90
41058;DHT22;66768;48.884;2.258;2023-08-06T07:11:34;16.90;99.90
41058;DHT22;66768;48.884;2.258;2023-08-06T07:14:01;17.00;99.90
41058;DHT22;66768;48.884;2.258;2023-08-06T07:16:28;17.00;99.90
41058;DHT22;66768;48.884;2.258;2023-08-06T07:18:55;17.10;99.90
41058;DHT22;66768;48.884;2.258;2023-08-06T07:21:23;17.10;99.90
41058;DHT22;66768;48.884;2.258;2023-08-06T07:23:50;17.20;99.90
41058;DHT22;66768;48.884;2.258;2023-08-06T07:26:17;17.20;99.90
41058;DHT22;66768;48.884;2.258;2023-08-06T07:28:44;17.30;99.90
41058;DHT22;66768;48.884;2.258;2023-08-06T07:31:11;17.30;99.90
41058;DHT22;66768;48.884;2.258;2023-08-06T07:33:38;17.40;99.90
41058;DHT22;66768;48.884;2.258;2023-08-06T07:36:08;17.40;99.90
41058;DHT22;66768;48.884;2.258;2023-08-06T07:38:37;17.40;99.90
41058;DHT22;66768;48.884;2.258;2023-08-06T07:41:04;17.50;99.90
41058;DHT22;66768;48.884;2.258;2023-08-06T07:43:31;17.50;99.90
41058;DHT22;66768;48.884;2.258;2023-08-06T07:45:59;17.60;99.90
41058;DHT22;66768;48.884;2.258;2023-08-06T07:48:26;17.70;99.90
41058;DHT22;66768;48.884;2.258;2023-08-06T07:50:54;17.80;99.90
41058;DHT22;66768;48.884;2.258;2023-08-06T07:53:21;17.80;99.90
41058;DHT22;66768;48.884;2.258;2023-08-06T07:55:51;17.80;99.90
41058;DHT22;66768;48.884;2.258;2023-08-06T07:58:18;17.90;99.90
41058;DHT22;66768;48.884;2.258;2023-08-06T08:00:46;17.90;99.90
41058;DHT22;66768;48.884;2.258;2023-08-06T08:03:14;17.90;99.90
41058;DHT22;66768;48.884;2.258;2023-08-06T08:05:42;17.90;99.90
41058;DHT22;66768;48.884;2.258;2023-08-06T08:08:09;17.80;99.90
41058;DHT22;66768;48.884;2.258;2023-08-06T08:10:36;17.80;99.90
41058;DHT22;66768;48.884;2.258;2023-08-06T08:13:05;17.80;99.90
41058;DHT22;66768;48.884;2.258;2023-08-06T08:15:32;17.90;99.90
41058;DHT22;66768;48.884;2.258;2023-08-06T08:17:59;18.10;99.90
41058;DHT22;66768;48.884;2.258;2023-08-06T08:20:26;18.00;99.90
41058;DHT22;66768;48.884;2.258;2023-08-06T08:22:57;18.20;99.90
41058;DHT22;66768;48.884;2.258;2023-08-06T08:25:24;18.30;99.90
41058;DHT22;66768;48.884;2.258;2023-08-06T08:27:52;18.40;99.90
41058;DHT22;66768;48.884;2.258;2023-08-06T08:30:20;18.60;99.90
41058;DHT22;66768;48.884;2.258;2023-08-06T08:32:47;18.50;99.90
41058;DHT22;66768;48.884;2.258;2023-08-06T08:35:14;18.70;99.90
41058;DHT22;66768;48.884;2.258;2023-08-06T08:37:41;18.60;99.90
41058;DHT22;66768;48.884;2.258;2023-08-06T08:40:09;18.60;99.90
41058;DHT22;66768;48.884;2.258;2023-08-06T08:42:37;18.50;99.90
41058;DHT22;66768;48.884;2.258;2023-08-06T08:45:05;18.50;99.90
41058;DHT22;66768;48.884;2.258;2023-08-06T08:47:35;18.50;99.90
41058;DHT22;66768;48.884;2.258;2023-08-06T08:50:05;18.50;99.90
41058;DHT22;66768;48.884;2.258;2023-08-06T08:52:33;18.60;99.90
41058;DHT22;66768;48.884;2.258;2023-08-06T08:55:02;18.60;99.90
41058;DHT22;66768;48.884;2.258;2023-08-06T08:57:29;18.60;99.90
41058;DHT22;66768;48.884;2.258;2023-08-06T08:59:56;18.60;99.90
41058;DHT22;66768;48.884;2.258;2023-08-06T09:02:25;18.50;99.90
41058;DHT22;66768;48.884;2.258;2023-08-06T09:04:54;18.60;99.90
41058;DHT22;66768;48.884;2.258;2023-08-06T09:07:21;18.60;99.90
41058;DHT22;66768;48.884;2.258;2023-08-06T09:09:50;18.60;99.90
41058;DHT22;66768;48.884;2.258;2023-08-06T09:12:18;18.50;99.90
41058;DHT22;66768;48.884;2.258;2023-08-06T09:14:45;18.60;99.90
41058;DHT22;66768;48.884;2.258;2023-08-06T09:17:12;18.50;99.90
41058;DHT22;66768;48.884;2.258;2023-08-06T09:19:42;18.50;99.90
41058;DHT22;66768;48.884;2.258;2023-08-06T09:22:14;18.40;99.90
41058;DHT22;66768;48.884;2.258;2023-08-06T09:24:41;18.50;99.90
41058;DHT22;66768;48.884;2.258;2023-08-06T09:27:11;18.50;99.90
41058;DHT22;66768;48.884;2.258;2023-08-06T09:29:40;18.50;99.90
41058;DHT22;66768;48.884;2.258;2023-08-06T09:32:09;18.50;99.90
41058;DHT22;66768;48.884;2.258;2023-08-06T09:34:38;18.50;99.90
41058;DHT22;66768;48.884;2.258;2023-08-06T09:37:06;18.50;99.90
41058;DHT22;66768;48.884;2.258;2023-08-06T09:39:37;18.40;99.90
41058;DHT22;66768;48.884;2.258;2023-08-06T09:42:04;18.50;99.90
41058;DHT22;66768;48.884;2.258;2023-08-06T09:44:32;18.50;99.90
41058;DHT22;66768;48.884;2.258;2023-08-06T09:47:00;18.50;99.90
41058;DHT22;66768;48.884;2.258;2023-08-06T09:49:28;18.60;99.90
41058;DHT22;66768;48.884;2.258;2023-08-06T09:51:55;18.60;99.90
41058;DHT22;66768;48.884;2.258;2023-08-06T09:54:24;18.60;99.90
41058;DHT22;66768;48.884;2.258;2023-08-06T09:56:54;18.50;99.90
41058;DHT22;66768;48.884;2.258;2023-08-06T09:59:22;18.60;99.90
41058;DHT22;66768;48.884;2.258;2023-08-06T10:01:49;18.70;99.90
41058;DHT22;66768;48.884;2.258;2023-08-06T10:04:16;18.70;99.90
41058;DHT22;66768;48.884;2.258;2023-08-06T10:06:46;18.70;99.90
41058;DHT22;66768;48.884;2.258;2023-08-06T10:09:14;18.60;99.90
41058;DHT22;66768;48.884;2.258;2023-08-06T10:11:42;18.70;99.90
41058;DHT22;66768;48.884;2.258;2023-08-06T10:14:18;18.70;99.90
41058;DHT22;66768;48.884;2.258;2023-08-06T10:16:47;18.70;99.90
41058;DHT22;66768;48.884;2.258;2023-08-06T10:19:15;18.80;99.90
41058;DHT22;66768;48.884;2.258;2023-08-06T10:22:08;18.80;99.90
41058;DHT22;66768;48.884;2.258;2023-08-06T10:24:48;18.90;99.90
41058;DHT22;66768;48.884;2.258;2023-08-06T10:27:20;18.80;99.90
41058;DHT22;66768;48.884;2.258;2023-08-06T10:29:49;18.80;99.90
41058;DHT22;66768;48.884;2.258;2023-08-06T10:32:16;18.80;99.90
41058;DHT22;66768;48.884;2.258;2023-08-06T10:34:57;18.70;99.90
41058;DHT22;66768;48.884;2.258;2023-08-06T10:37:35;18.80;99.90
41058;DHT22;66768;48.884;2.258;2023-08-06T10:40:03;18.80;99.90
41058;DHT22;66768;48.884;2.258;2023-08-06T10:42:30;18.90;99.90
41058;DHT22;66768;48.884;2.258;2023-08-06T10:45:18;18.90;99.90
41058;DHT22;66768;48.884;2.258;2023-08-06T10:47:46;18.90;99.90
41058;DHT22;66768;48.884;2.258;2023-08-06T10:50:14;18.90;99.90
41058;DHT22;66768;48.884;2.258;2023-08-06T10:52:42;18.90;99.70
41058;DHT22;66768;48.884;2.258;2023-08-06T10:55:10;19.00;99.90
41058;DHT22;66768;48.884;2.258;2023-08-06T10:57:37;19.00;99.90
41058;DHT22;66768;48.884;2.258;2023-08-06T11:00:05;19.10;99.90
41058;DHT22;66768;48.884;2.258;2023-08-06T11:02:35;19.20;99.90
41058;DHT22;66768;48.884;2.258;2023-08-06T11:05:06;19.20;99.90
41058;DHT22;66768;48.884;2.258;2023-08-06T11:07:33;19.20;99.60
41058;DHT22;66768;48.884;2.258;2023-08-06T11:10:04;19.30;99.50
41058;DHT22;66768;48.884;2.258;2023-08-06T11:12:31;19.30;99.40
41058;DHT22;66768;48.884;2.258;2023-08-06T11:14:59;19.30;99.00
41058;DHT22;66768;48.884;2.258;2023-08-06T11:17:27;19.30;98.50
41058;DHT22;66768;48.884;2.258;2023-08-06T11:19:56;19.40;99.00
41058;DHT22;66768;48.884;2.258;2023-08-06T11:22:26;19.50;99.20
41058;DHT22;66768;48.884;2.258;2023-08-06T11:24:53;19.50;98.90
41058;DHT22;66768;48.884;2.258;2023-08-06T11:27:20;19.50;98.90
41058;DHT22;66768;48.884;2.258;2023-08-06T11:29:47;19.40;98.90
41058;DHT22;66768;48.884;2.258;2023-08-06T11:32:14;19.50;98.70
41058;DHT22;66768;48.884;2.258;2023-08-06T11:34:43;19.50;98.70
41058;DHT22;66768;48.884;2.258;2023-08-06T11:37:12;19.50;98.80
41058;DHT22;66768;48.884;2.258;2023-08-06T11:39:39;19.50;98.30
41058;DHT22;66768;48.884;2.258;2023-08-06T11:42:12;19.50;98.50
41058;DHT22;66768;48.884;2.258;2023-08-06T11:44:41;19.60;99.10
41058;DHT22;66768;48.884;2.258;2023-08-06T11:47:12;19.70;98.20
41058;DHT22;66768;48.884;2.258;2023-08-06T11:49:41;19.60;97.80
41058;DHT22;66768;48.884;2.258;2023-08-06T11:52:22;19.50;97.30
41058;DHT22;66768;48.884;2.258;2023-08-06T11:55:01;19.50;97.40
41058;DHT22;66768;48.884;2.258;2023-08-06T11:57:29;19.50;97.60
41058;DHT22;66768;48.884;2.258;2023-08-06T12:00:02;19.50;97.70
41058;DHT22;66768;48.884;2.258;2023-08-06T12:02:31;19.50;97.80
41058;DHT22;66768;48.884;2.258;2023-08-06T12:05:03;19.50;97.90
41058;DHT22;66768;48.884;2.258;2023-08-06T12:07:32;19.50;98.30
41058;DHT22;66768;48.884;2.258;2023-08-06T12:10:03;19.40;98.20
41058;DHT22;66768;48.884;2.258;2023-08-06T12:12:31;19.30;98.80
41058;DHT22;66768;48.884;2.258;2023-08-06T12:14:58;19.30;99.90
41058;DHT22;66768;48.884;2.258;2023-08-06T12:17:25;19.20;99.90
41058;DHT22;66768;48.884;2.258;2023-08-06T12:19:52;19.20;99.90
41058;DHT22;66768;48.884;2.258;2023-08-06T12:22:19;19.30;99.90
41058;DHT22;66768;48.884;2.258;2023-08-06T12:24:47;19.40;99.50
41058;DHT22;66768;48.884;2.258;2023-08-06T12:27:14;19.50;99.10
41058;DHT22;66768;48.884;2.258;2023-08-06T12:29:42;19.60;99.10
41058;DHT22;66768;48.884;2.258;2023-08-06T12:32:09;19.70;99.20
41058;DHT22;66768;48.884;2.258;2023-08-06T12:34:38;19.60;98.60
41058;DHT22;66768;48.884;2.258;2023-08-06T12:37:05;19.70;98.50
41058;DHT22;66768;48.884;2.258;2023-08-06T12:39:32;19.70;98.10
41058;DHT22;66768;48.884;2.258;2023-08-06T12:42:01;19.70;98.20
41058;DHT22;66768;48.884;2.258;2023-08-06T12:44:28;19.80;98.30
41058;DHT22;66768;48.884;2.258;2023-08-06T12:46:55;19.80;98.30
41058;DHT22;66768;48.884;2.258;2023-08-06T12:49:22;19.80;98.00
41058;DHT22;66768;48.884;2.258;2023-08-06T12:51:50;19.80;97.60
41058;DHT22;66768;48.884;2.258;2023-08-06T12:54:18;19.80;97.70
41058;DHT22;66768;48.884;2.258;2023-08-06T12:56:45;19.80;97.70
41058;DHT22;66768;48.884;2.258;2023-08-06T12:59:14;19.70;97.80
41058;DHT22;66768;48.884;2.258;2023-08-06T13:01:42;19.70;97.90
41058;DHT22;66768;48.884;2.258;2023-08-06T13:04:09;19.80;98.60
41058;DHT22;66768;48.884;2.258;2023-08-06T13:06:36;19.80;98.60
41058;DHT22;66768;48.884;2.258;2023-08-06T13:09:04;19.80;99.00
41058;DHT22;66768;48.884;2.258;2023-08-06T13:11:32;19.80;98.50
41058;DHT22;66768;48.884;2.258;2023-08-06T13:14:04;19.70;98.40
41058;DHT22;66768;48.884;2.258;2023-08-06T13:16:33;19.70;98.30
41058;DHT22;66768;48.884;2.258;2023-08-06T13:19:00;19.60;98.50
41058;DHT22;66768;48.884;2.258;2023-08-06T13:21:35;19.60;98.80
41058;DHT22;66768;48.884;2.258;2023-08-06T13:24:02;19.60;98.30
41058;DHT22;66768;48.884;2.258;2023-08-06T13:26:30;19.70;99.00
41058;DHT22;66768;48.884;2.258;2023-08-06T13:28:57;19.80;98.20
41058;DHT22;66768;48.884;2.258;2023-08-06T13:31:24;19.80;97.80
41058;DHT22;66768;48.884;2.258;2023-08-06T13:33:53;19.90;97.50
41058;DHT22;66768;48.884;2.258;2023-08-06T13:36:21;20.00;97.00
41058;DHT22;66768;48.884;2.258;2023-08-06T13:38:48;19.90;97.10
41058;DHT22;66768;48.884;2.258;2023-08-06T13:41:15;19.80;97.10
41058;DHT22;66768;48.884;2.258;2023-08-06T13:43:42;19.80;97.00
41058;DHT22;66768;48.884;2.258;2023-08-06T13:46:09;19.80;97.00
41058;DHT22;66768;48.884;2.258;2023-08-06T13:48:40;19.70;97.10
41058;DHT22;66768;48.884;2.258;2023-08-06T13:51:08;19.70;97.20
41058;DHT22;66768;48.884;2.258;2023-08-06T13:53:35;19.70;97.20
41058;DHT22;66768;48.884;2.258;2023-08-06T13:56:02;19.70;97.60
41058;DHT22;66768;48.884;2.258;2023-08-06T13:58:29;19.70;98.00
41058;DHT22;66768;48.884;2.258;2023-08-06T14:00:56;19.70;98.20
41058;DHT22;66768;48.884;2.258;2023-08-06T14:03:24;19.70;98.00
41058;DHT22;66768;48.884;2.258;2023-08-06T14:05:50;19.70;97.90
41058;DHT22;66768;48.884;2.258;2023-08-06T14:08:19;19.70;97.90
41058;DHT22;66768;48.884;2.258;2023-08-06T14:10:46;19.80;98.30
41058;DHT22;66768;48.884;2.258;2023-08-06T14:13:13;19.90;98.00
41058;DHT22;66768;48.884;2.258;2023-08-06T14:15:40;19.90;97.80
41058;DHT22;66768;48.884;2.258;2023-08-06T14:18:07;19.90;97.50
41058;DHT22;66768;48.884;2.258;2023-08-06T14:20:35;20.00;97.50
41058;DHT22;66768;48.884;2.258;2023-08-06T14:23:01;20.00;97.60
41058;DHT22;66768;48.884;2.258;2023-08-06T14:25:31;20.00;97.90
41058;DHT22;66768;48.884;2.258;2023-08-06T14:27:58;20.10;98.00
41058;DHT22;66768;48.884;2.258;2023-08-06T14:30:25;20.00;98.10
41058;DHT22;66768;48.884;2.258;2023-08-06T14:32:52;20.00;97.90
41058;DHT22;66768;48.884;2.258;2023-08-06T14:35:20;20.00;98.10
41058;DHT22;66768;48.884;2.258;2023-08-06T14:37:47;20.00;98.10
41058;DHT22;66768;48.884;2.258;2023-08-06T14:40:14;20.00;97.40
41058;DHT22;66768;48.884;2.258;2023-08-06T14:42:42;20.00;97.00
41058;DHT22;66768;48.884;2.258;2023-08-06T14:45:09;19.90;96.60
41058;DHT22;66768;48.884;2.258;2023-08-06T14:47:36;19.90;96.70
41058;DHT22;66768;48.884;2.258;2023-08-06T14:50:04;20.00;97.20
41058;DHT22;66768;48.884;2.258;2023-08-06T14:52:31;20.00;97.00
41058;DHT22;66768;48.884;2.258;2023-08-06T14:54:59;20.00;97.20
41058;DHT22;66768;48.884;2.258;2023-08-06T14:57:28;20.00;98.30
41058;DHT22;66768;48.884;2.258;2023-08-06T14:59:56;20.10;97.90
41058;DHT22;66768;48.884;2.258;2023-08-06T15:02:23;20.10;97.50
41058;DHT22;66768;48.884;2.258;2023-08-06T15:04:50;20.10;96.90
41058;DHT22;66768;48.884;2.258;2023-08-06T15:07:17;20.10;97.00
41058;DHT22;66768;48.884;2.258;2023-08-06T15:09:44;20.10;97.20
41058;DHT22;66768;48.884;2.258;2023-08-06T15:12:10;20.20;98.10
41058;DHT22;66768;48.884;2.258;2023-08-06T15:14:38;20.20;97.40
41058;DHT22;66768;48.884;2.258;2023-08-06T15:17:06;20.20;97.10
41058;DHT22;66768;48.884;2.258;2023-08-06T15:19:33;20.20;96.50
41058;DHT22;66768;48.884;2.258;2023-08-06T15:22:00;20.10;96.60
41058;DHT22;66768;48.884;2.258;2023-08-06T15:24:26;20.10;96.80
41058;DHT22;66768;48.884;2.258;2023-08-06T15:26:53;20.00;97.10
41058;DHT22;66768;48.884;2.258;2023-08-06T15:29:20;20.00;97.30
41058;DHT22;66768;48.884;2.258;2023-08-06T15:31:47;20.00;97.10
41058;DHT22;66768;48.884;2.258;2023-08-06T15:34:15;20.00;97.10